Airport ICAO


14:48 UTC

12°C

Scattered clouds


An affordable passengers' Moving Map for your aircraft. Made for the iPad and the iPhone
More information here

EGKK Gatwick


London UNITED KINGDOM   VFR


METAR EGKK 231420Z 32013KT 9999 FEW026 SCT030 12/06 Q1020 0h28min

TAF EGKK 231056Z 2312/2418 35008KT 9999 SCT030 PROB30 TEMPO 2312/2314 35015G25KT 8000 RA BKN008 PROB30 2401/2408 6000 3h52min





NOTAMS

OPEN